Impacts METAR Board
IDs:

KMIA - Miami Intl, FL, US

Updated at: 0100 UTC 25 May 2018
Potential Impact None Slight Moderate High
Time 24/13Z 24/14Z 24/15Z 24/16Z 24/17Z 24/18Z 24/19Z 24/20Z 24/21Z 24/22Z 24/23Z 25/00Z 25/01Z
Temp80 80 82 83 85 85 84 82 81 81 81 80 79
Dewpt73 75 73 74 73 73 73 73 73 73 74 75 74
Altim30.07 30.08 30.08 30.08 30.06 30.05 30.04 30.03 30.01 30.02 30.03 30.03 30.03
VIS10 10 10 10 10 10 10 10 10 10 10 10 10
CIG20 20 75 75 70 250 80 80 100 60 60 90 90
CoverOVCOVCOVCOVCOVCOVCBKNOVCOVCOVCOVCOVCOVC
FltCatMVFRMVFRVFRVFRVFRVFRVFRVFRVFRVFRVFRVFRVFR
WX---RA----------------------
WDir120901201001201101001101001009080110
WSpd9 8 11 10 12 10 12 10 9 11 11 11 8
WGst-- -- -- -- -- -- -- -- -- -- -- -- --
Raw hourly METARs
KMIA 241302Z 12009KT 10SM BKN020 BKN035 BKN055 OVC250 27/23 A3007 RMK AO2 T02670228
KMIA 241353Z 09008KT 10SM -RA BKN020 BKN044 OVC250 27/24 A3008 RMK AO2 RAB46 SLP186 P0000 T02670239
KMIA 241453Z 12011KT 10SM SCT022 BKN075 OVC250 28/23 A3008 RMK AO2 RAE1357 SLP187 P0000 60000 T02780228 51007
KMIA 241553Z 10010KT 10SM SCT022 BKN075 OVC210 28/23 A3008 RMK AO2 SLP185 T02830233
KMIA 241653Z 12012KT 10SM SCT024 BKN070 BKN170 OVC250 29/23 A3006 RMK AO2 SLP180 T02940228
KMIA 241753Z 11010KT 10SM SCT026 SCT050 SCT170 OVC250 29/23 A3005 RMK AO2 SLP177 60000 T02940228 10300 20261 58009
KMIA 241853Z 10012KT 10SM SCT026 BKN080 BKN250 29/23 A3004 RMK AO2 SLP173 T02890228
KMIA 241953Z 11010KT 10SM SCT027 BKN080 OVC250 28/23 A3003 RMK AO2 SLP169 T02780228
KMIA 242053Z 10009KT 10SM SCT027 SCT060 BKN100 OVC250 27/23 A3001 RMK AO2 SLP163 T02720228 58014
KMIA 242153Z 10011KT 10SM SCT027 BKN060 OVC120 27/23 A3002 RMK AO2 SLP165 T02720228 $
KMIA 242253Z 09011KT 10SM SCT027 BKN060 OVC120 27/23 A3003 RMK AO2 SLP168 T02720233 $
KMIA 242353Z 08011KT 10SM FEW027 SCT060 BKN090 OVC150 27/24 A3003 RMK AO2 LTG DSNT NW SLP169 T02670239 10294 20267 51005 $
KMIA 250053Z 11008KT 10SM FEW025 SCT060 BKN090 OVC150 26/23 A3003 RMK AO2 SLP168 T02610233 $



Page loaded:  01:24 UTC  |   06:24 PM Pacific  |   07:24 PM Mountain  |   08:24 PM Central  |   09:24 PM Eastern

 

ADVISORIES

FORECASTS

FORECASTS

OBSERVATIONS

USER TOOLS

ABOUT US